createdAt,value
2023-03-03T00:02:07.258Z,25.08
2023-03-03T00:04:35.283Z,33.03
2023-03-03T00:07:03.526Z,29.23
2023-03-03T00:09:31.437Z,24.15
2023-03-03T00:12:00.176Z,26.50
2023-03-03T00:14:32.619Z,19.00
2023-03-03T00:17:02.500Z,31.60
2023-03-03T00:19:30.818Z,41.60
2023-03-03T00:21:59.374Z,45.85
2023-03-03T00:24:37.873Z,36.53
2023-03-03T00:27:32.339Z,27.35
2023-03-03T00:30:01.286Z,23.73
2023-03-03T00:32:51.321Z,23.20
2023-03-03T00:35:28.240Z,21.33
2023-03-03T00:38:11.479Z,22.83
2023-03-03T00:40:39.914Z,17.95
2023-03-03T00:43:35.527Z,30.25
2023-03-03T00:46:03.725Z,26.27
2023-03-03T00:48:37.879Z,28.33
2023-03-03T00:51:38.264Z,30.35
2023-03-03T00:54:06.275Z,25.15
2023-03-03T00:56:34.744Z,26.85
2023-03-03T00:59:03.117Z,32.40
2023-03-03T01:01:31.206Z,37.25
2023-03-03T01:03:59.491Z,28.45
2023-03-03T01:06:28.418Z,38.47
2023-03-03T01:08:58.177Z,34.33
2023-03-03T01:11:26.952Z,27.27
2023-03-03T01:13:55.684Z,27.30
2023-03-03T01:16:24.168Z,36.97
2023-03-03T01:18:52.439Z,37.20
2023-03-03T01:21:20.394Z,29.70
2023-03-03T01:23:48.811Z,41.28
2023-03-03T01:26:16.944Z,26.55
2023-03-03T01:28:45.128Z,21.52
2023-03-03T01:31:14.090Z,25.05
2023-03-03T01:33:42.576Z,26.83
2023-03-03T01:36:10.515Z,26.70
2023-03-03T01:38:38.518Z,22.45
2023-03-03T01:41:07.211Z,26.48
2023-03-03T01:43:35.044Z,22.27
2023-03-03T01:46:03.346Z,27.23
2023-03-03T01:48:44.050Z,26.63
2023-03-03T01:51:22.036Z,27.45
2023-03-03T01:53:58.494Z,32.65
2023-03-03T01:56:27.350Z,44.13
2023-03-03T01:59:02.716Z,61.33
2023-03-03T02:01:31.413Z,54.78
2023-03-03T02:04:00.113Z,44.58
2023-03-03T02:06:31.572Z,41.30
2023-03-03T02:09:30.359Z,27.10
2023-03-03T02:12:01.336Z,23.25
2023-03-03T02:14:29.234Z,22.50
2023-03-03T02:16:57.207Z,29.48
2023-03-03T02:19:36.632Z,24.00
2023-03-03T02:22:04.749Z,20.73
2023-03-03T02:24:54.441Z,14.82
2023-03-03T02:27:22.350Z,31.70
2023-03-03T02:29:50.448Z,32.88
2023-03-03T02:32:18.657Z,23.27
2023-03-03T02:34:51.894Z,29.60
2023-03-03T02:37:20.648Z,30.30
2023-03-03T02:39:48.497Z,23.60
2023-03-03T02:42:18.364Z,21.63
2023-03-03T02:44:51.309Z,27.63
2023-03-03T02:47:19.280Z,23.70
2023-03-03T02:49:47.072Z,35.63
2023-03-03T02:52:15.583Z,30.45
2023-03-03T02:54:46.337Z,30.65
2023-03-03T02:57:14.426Z,25.67
2023-03-03T02:59:42.904Z,21.08
2023-03-03T03:02:17.384Z,15.95
2023-03-03T03:04:46.393Z,14.13
2023-03-03T03:07:18.609Z,16.08
2023-03-03T03:09:47.577Z,15.25
2023-03-03T03:12:16.412Z,29.95
2023-03-03T03:14:44.820Z,23.42
2023-03-03T03:17:13.204Z,24.10
2023-03-03T03:19:41.896Z,19.73
2023-03-03T03:22:09.771Z,25.63
2023-03-03T03:24:37.932Z,17.83
2023-03-03T03:27:09.284Z,27.17
2023-03-03T03:29:37.736Z,26.23
2023-03-03T03:32:06.836Z,28.23
2023-03-03T03:34:35.539Z,27.00
2023-03-03T03:37:04.834Z,26.23
2023-03-03T03:39:32.923Z,24.13
2023-03-03T03:42:00.859Z,21.17
2023-03-03T03:44:29.065Z,21.75
2023-03-03T03:46:57.289Z,19.50
2023-03-03T03:49:25.910Z,30.40
2023-03-03T03:51:56.308Z,20.30
2023-03-03T03:54:27.869Z,20.63
2023-03-03T03:56:56.096Z,16.75
2023-03-03T03:59:25.003Z,19.80
2023-03-03T04:01:53.421Z,28.42
2023-03-03T04:04:23.302Z,25.08
2023-03-03T04:06:51.394Z,21.33
2023-03-03T04:09:22.935Z,21.25
2023-03-03T04:11:51.161Z,18.95
2023-03-03T04:14:19.926Z,20.15
2023-03-03T04:16:47.920Z,23.88
2023-03-03T04:19:15.666Z,19.77
2023-03-03T04:21:44.611Z,15.23
2023-03-03T04:24:12.581Z,16.23
2023-03-03T04:26:41.087Z,16.83
2023-03-03T04:29:11.013Z,17.52
2023-03-03T04:31:41.160Z,16.30
2023-03-03T04:34:10.875Z,19.52
2023-03-03T04:36:39.567Z,19.83
2023-03-03T04:39:07.735Z,17.85
2023-03-03T04:41:36.115Z,23.42
2023-03-03T04:44:04.874Z,14.63
2023-03-03T04:46:32.860Z,20.00
2023-03-03T04:49:02.036Z,21.27
2023-03-03T04:51:30.232Z,18.90
2023-03-03T04:53:58.507Z,20.27
2023-03-03T04:56:26.834Z,17.13
2023-03-03T04:58:55.191Z,21.35
2023-03-03T05:01:23.623Z,21.83
2023-03-03T05:03:51.448Z,21.35
2023-03-03T05:06:19.850Z,21.60
2023-03-03T05:08:47.673Z,24.83
2023-03-03T05:11:15.930Z,21.95
2023-03-03T05:13:43.849Z,17.98
2023-03-03T05:16:11.835Z,15.15
2023-03-03T05:18:39.968Z,16.90
2023-03-03T05:21:08.012Z,15.93
2023-03-03T05:23:36.636Z,18.40
2023-03-03T05:26:04.816Z,19.60
2023-03-03T05:28:33.913Z,17.63
2023-03-03T05:31:02.025Z,12.27
2023-03-03T05:33:30.607Z,17.05
2023-03-03T05:35:58.692Z,14.43
2023-03-03T05:38:26.981Z,12.27
2023-03-03T05:40:55.675Z,14.18
2023-03-03T05:43:23.459Z,19.13
2023-03-03T05:46:00.761Z,11.38
2023-03-03T05:48:29.068Z,16.38
2023-03-03T05:51:00.619Z,12.52
2023-03-03T05:53:28.986Z,12.48
2023-03-03T05:55:57.044Z,11.40
2023-03-03T05:58:25.394Z,16.45
2023-03-03T06:00:53.430Z,15.98
2023-03-03T06:03:21.545Z,15.05
2023-03-03T06:05:49.658Z,12.40
2023-03-03T06:08:17.866Z,11.82
2023-03-03T06:10:45.794Z,14.43
2023-03-03T06:13:15.712Z,11.10
2023-03-03T06:15:43.764Z,12.80
2023-03-03T06:18:12.175Z,16.45
2023-03-03T06:20:40.080Z,14.48
2023-03-03T06:23:08.658Z,12.45
2023-03-03T06:25:37.000Z,17.60
2023-03-03T06:28:05.149Z,16.10
2023-03-03T06:30:33.000Z,7.95
2023-03-03T06:33:01.250Z,12.93
2023-03-03T06:35:29.424Z,16.40
2023-03-03T06:37:57.571Z,16.98
2023-03-03T06:40:25.265Z,15.45
2023-03-03T06:42:53.457Z,16.63
2023-03-03T06:45:21.788Z,14.55
2023-03-03T06:47:51.574Z,20.23
2023-03-03T06:50:20.305Z,32.17
2023-03-03T06:52:48.867Z,35.75
2023-03-03T06:55:22.140Z,29.83
2023-03-03T06:57:50.038Z,34.28
2023-03-03T07:00:25.077Z,32.80
2023-03-03T07:03:15.018Z,35.20
2023-03-03T07:05:43.007Z,32.33
2023-03-03T07:08:19.184Z,39.35
2023-03-03T07:10:47.378Z,34.05
2023-03-03T07:13:26.085Z,32.83
2023-03-03T07:15:55.201Z,36.10
2023-03-03T07:18:53.558Z,37.97
2023-03-03T07:21:35.856Z,30.88
2023-03-03T07:24:28.418Z,37.88
2023-03-03T07:27:24.928Z,37.20
2023-03-03T07:29:54.580Z,34.22
2023-03-03T07:32:47.657Z,42.38
2023-03-03T07:35:38.263Z,40.03
2023-03-03T07:38:31.068Z,46.80
2023-03-03T07:41:01.421Z,46.03
2023-03-03T07:43:38.590Z,37.88
2023-03-03T07:46:10.571Z,39.00
2023-03-03T07:48:40.634Z,36.17
2023-03-03T07:51:42.341Z,31.83
2023-03-03T07:54:36.171Z,39.13
2023-03-03T07:59:54.962Z,42.45
2023-03-03T08:02:29.044Z,35.55
2023-03-03T08:04:57.451Z,38.97
2023-03-03T08:07:25.537Z,40.17
2023-03-03T08:10:01.090Z,33.90
2023-03-03T08:12:42.368Z,35.83
2023-03-03T08:15:22.383Z,35.25
2023-03-03T08:17:51.120Z,40.00
2023-03-03T08:20:37.603Z,36.28
2023-03-03T08:23:05.749Z,36.10
2023-03-03T08:25:33.531Z,42.20
2023-03-03T08:28:01.577Z,40.47
2023-03-03T08:30:29.451Z,39.65
2023-03-03T08:32:57.587Z,43.75
2023-03-03T08:35:25.426Z,35.30
2023-03-03T08:37:53.490Z,28.48
2023-03-03T08:40:21.536Z,25.65
2023-03-03T08:42:49.608Z,29.48
2023-03-03T08:45:18.309Z,27.70
2023-03-03T08:47:46.448Z,22.10
2023-03-03T08:50:15.378Z,37.33
2023-03-03T08:52:43.387Z,27.52
2023-03-03T08:55:12.029Z,38.38
2023-03-03T08:57:40.142Z,51.03
2023-03-03T09:00:10.318Z,69.00
2023-03-03T09:02:38.468Z,71.80
2023-03-03T09:05:07.334Z,53.75
2023-03-03T09:07:35.191Z,47.30
2023-03-03T09:10:03.416Z,43.15
2023-03-03T09:12:37.097Z,35.95
2023-03-03T09:15:35.026Z,32.95
2023-03-03T09:18:23.864Z,46.40
2023-03-03T09:20:53.056Z,20.70
2023-03-03T09:23:39.621Z,20.88
2023-03-03T09:26:32.605Z,23.45
2023-03-03T09:29:16.254Z,26.13
2023-03-03T09:31:49.395Z,26.08
2023-03-03T09:36:50.018Z,34.28
2023-03-03T09:39:28.466Z,34.97
2023-03-03T09:42:12.421Z,34.60
2023-03-03T09:45:02.318Z,33.20
2023-03-03T09:47:58.418Z,33.88
2023-03-03T09:50:29.389Z,37.78
2023-03-03T09:53:07.730Z,29.63
2023-03-03T09:55:40.952Z,29.15
2023-03-03T10:03:48.484Z,36.35
2023-03-03T10:06:34.134Z,32.42
2023-03-03T10:09:20.894Z,31.05
2023-03-03T10:12:14.977Z,34.63
2023-03-03T10:15:14.582Z,30.08
2023-03-03T10:17:49.553Z,39.70
2023-03-03T10:20:40.408Z,31.55
2023-03-03T10:23:53.741Z,24.95
2023-03-03T10:27:01.341Z,32.55
2023-03-03T10:29:45.221Z,35.20
2023-03-03T10:33:10.026Z,30.65
2023-03-03T10:36:07.128Z,30.95
2023-03-03T10:39:26.404Z,40.33
2023-03-03T10:42:15.788Z,35.25
2023-03-03T10:44:43.977Z,32.90
2023-03-03T10:47:36.229Z,41.88
2023-03-03T10:50:11.289Z,31.30
2023-03-03T10:52:59.067Z,37.97
2023-03-03T10:55:39.650Z,47.55
2023-03-03T10:58:27.603Z,38.95
2023-03-03T11:01:02.547Z,39.88
2023-03-03T11:03:37.176Z,45.65
2023-03-03T11:06:23.164Z,43.60
2023-03-03T11:09:04.112Z,53.88
2023-03-03T11:11:46.779Z,49.47
2023-03-03T11:14:17.273Z,47.80
2023-03-03T11:16:59.769Z,52.35
2023-03-03T11:19:42.005Z,48.03
2023-03-03T11:22:12.749Z,63.15
2023-03-03T11:25:02.374Z,48.38
2023-03-03T11:27:56.650Z,35.63
2023-03-03T11:30:30.564Z,38.08
2023-03-03T11:33:13.251Z,44.97
2023-03-03T11:35:50.346Z,45.17
2023-03-03T11:38:39.781Z,44.72
2023-03-03T11:41:13.816Z,43.30
2023-03-03T11:43:50.634Z,39.63
2023-03-03T11:46:47.808Z,44.40
2023-03-03T11:49:23.001Z,51.67
2023-03-03T11:51:53.716Z,49.17
2023-03-03T11:54:54.158Z,47.78
2023-03-03T11:57:23.881Z,60.17
2023-03-03T12:00:09.912Z,159.95
2023-03-03T12:02:59.414Z,138.00
2023-03-03T12:05:48.196Z,177.15
2023-03-03T12:08:34.585Z,198.75
2023-03-03T12:11:28.478Z,188.95
2023-03-03T12:14:38.285Z,163.55
2023-03-03T12:17:18.352Z,177.82
2023-03-03T12:20:17.891Z,137.32
2023-03-03T12:23:06.938Z,85.63
2023-03-03T12:25:44.237Z,97.60
2023-03-03T12:28:29.122Z,106.18
2023-03-03T12:31:24.503Z,54.83
2023-03-03T12:33:54.310Z,65.43
2023-03-03T12:36:32.650Z,79.55
2023-03-03T12:39:13.551Z,70.18
2023-03-03T12:41:56.933Z,74.90
2023-03-03T12:44:26.781Z,80.40
2023-03-03T12:47:02.364Z,45.58
2023-03-03T12:49:48.072Z,59.80
2023-03-03T12:52:46.885Z,53.05
2023-03-03T12:55:35.834Z,54.03
2023-03-03T12:58:04.089Z,43.88
2023-03-03T13:00:40.613Z,38.67
2023-03-03T13:03:55.790Z,66.13
2023-03-03T13:06:31.303Z,68.78
2023-03-03T13:09:36.657Z,54.13
2023-03-03T13:12:23.460Z,60.42
2023-03-03T13:15:00.862Z,61.58
2023-03-03T13:17:33.212Z,56.47
2023-03-03T13:20:03.632Z,43.45
2023-03-03T13:22:46.271Z,42.38
2023-03-03T13:25:34.546Z,49.40
2023-03-03T13:28:13.266Z,51.63
2023-03-03T13:30:55.375Z,51.88
2023-03-03T13:33:34.888Z,59.63
2023-03-03T13:36:12.641Z,68.93
2023-03-03T13:38:50.467Z,76.43
2023-03-03T13:41:51.312Z,69.68
2023-03-03T13:44:28.684Z,75.85
2023-03-03T13:47:02.442Z,86.55
2023-03-03T13:49:52.614Z,67.68
2023-03-03T13:52:25.250Z,64.18
2023-03-03T13:55:31.781Z,61.47
2023-03-03T13:58:12.706Z,81.13
2023-03-03T14:00:59.956Z,50.00
2023-03-03T14:03:52.826Z,98.10
2023-03-03T14:06:23.820Z,79.07
2023-03-03T14:09:03.688Z,95.50
2023-03-03T14:11:50.379Z,62.00
2023-03-03T14:14:25.068Z,100.25
2023-03-03T14:16:53.655Z,148.55
2023-03-03T14:19:40.828Z,68.07
2023-03-03T14:22:24.366Z,91.30
2023-03-03T14:25:09.235Z,102.45
2023-03-03T14:28:05.764Z,51.63
2023-03-03T14:30:37.872Z,95.35
2023-03-03T14:33:08.740Z,109.47
2023-03-03T14:35:41.793Z,43.97
2023-03-03T14:40:44.834Z,73.95
2023-03-03T14:43:27.943Z,91.22
2023-03-03T14:45:56.864Z,66.18
2023-03-03T14:48:26.720Z,60.78
2023-03-03T14:50:59.111Z,41.95
2023-03-03T14:53:40.193Z,70.47
2023-03-03T14:56:23.005Z,85.47
2023-03-03T14:58:54.957Z,101.35
2023-03-03T15:01:35.540Z,99.25
2023-03-03T15:04:16.072Z,71.00
2023-03-03T15:06:49.111Z,62.03
2023-03-03T15:09:43.724Z,68.25
2023-03-03T15:12:37.604Z,65.05
2023-03-03T15:15:14.707Z,84.63
2023-03-03T15:17:50.555Z,92.80
2023-03-03T15:20:41.404Z,108.55
2023-03-03T15:23:32.035Z,112.22
2023-03-03T15:26:05.447Z,106.38
2023-03-03T15:29:03.056Z,106.07
2023-03-03T15:31:49.961Z,107.28
2023-03-03T15:34:33.473Z,100.75
2023-03-03T15:37:10.525Z,100.30
2023-03-03T15:40:03.299Z,87.68
2023-03-03T15:42:38.592Z,70.88
2023-03-03T15:45:34.156Z,58.60
2023-03-03T15:48:20.451Z,66.78
2023-03-03T15:51:07.227Z,64.63
2023-03-03T15:53:58.605Z,57.50
2023-03-03T15:56:35.591Z,57.30
2023-03-03T15:59:37.874Z,59.92
2023-03-03T16:02:22.772Z,105.05
2023-03-03T16:05:15.989Z,71.75
2023-03-03T16:07:53.640Z,86.28
2023-03-03T16:10:37.672Z,111.65
2023-03-03T16:13:28.885Z,84.82
2023-03-03T16:16:18.661Z,38.65
2023-03-03T16:19:08.309Z,37.47
2023-03-03T16:21:54.801Z,52.72
2023-03-03T16:24:47.918Z,49.85
2023-03-03T16:27:31.301Z,55.65
2023-03-03T16:30:23.663Z,58.45
2023-03-03T16:32:53.694Z,61.58
2023-03-03T16:35:26.790Z,56.15
2023-03-03T16:40:58.808Z,43.83
2023-03-03T16:43:44.890Z,52.33
2023-03-03T16:46:36.607Z,61.00
2023-03-03T16:49:22.464Z,69.43
2023-03-03T16:51:54.219Z,70.13
2023-03-03T16:54:37.426Z,105.95
2023-03-03T16:57:34.234Z,120.40
2023-03-03T17:00:22.291Z,123.22
2023-03-03T17:02:52.977Z,126.05
2023-03-03T17:06:01.067Z,102.45
2023-03-03T17:09:06.583Z,122.18
2023-03-03T17:11:38.108Z,152.82
2023-03-03T17:14:25.284Z,131.70
2023-03-03T17:16:57.916Z,128.85
2023-03-03T17:19:38.415Z,136.00
2023-03-03T17:22:41.095Z,137.85
2023-03-03T17:25:12.885Z,154.88
2023-03-03T17:27:59.809Z,158.45
2023-03-03T17:30:51.262Z,146.75
2023-03-03T17:33:28.324Z,158.65
2023-03-03T17:36:18.434Z,172.90
2023-03-03T17:38:46.328Z,148.38
2023-03-03T17:41:32.882Z,145.48
2023-03-03T17:44:14.650Z,132.85
2023-03-03T17:46:51.975Z,124.53
2023-03-03T17:49:43.334Z,104.18
2023-03-03T17:52:11.200Z,93.30
2023-03-03T17:54:59.582Z,86.82
2023-03-03T17:57:58.960Z,66.68
2023-03-03T18:00:52.698Z,69.00
2023-03-03T18:06:29.784Z,59.83
2023-03-03T18:09:35.609Z,51.78
2023-03-03T18:12:10.934Z,54.95
2023-03-03T18:15:00.452Z,71.28
2023-03-03T18:17:31.524Z,68.22
2023-03-03T18:20:11.370Z,91.20
2023-03-03T18:22:46.677Z,81.95
2023-03-03T18:25:16.331Z,79.45
2023-03-03T18:27:49.062Z,81.45
2023-03-03T18:30:22.665Z,88.78
2023-03-03T18:32:56.706Z,102.82
2023-03-03T18:35:49.656Z,96.05
2023-03-03T18:38:25.905Z,98.38
2023-03-03T18:41:12.978Z,101.80
2023-03-03T18:43:44.515Z,113.22
2023-03-03T18:46:22.029Z,132.68
2023-03-03T18:48:55.222Z,137.82
2023-03-03T18:51:36.236Z,120.43
2023-03-03T18:54:13.151Z,126.40
2023-03-03T18:57:05.770Z,113.20
2023-03-03T18:59:37.004Z,101.57
2023-03-03T19:02:14.192Z,98.10
2023-03-03T19:04:55.975Z,91.15
2023-03-03T19:07:28.503Z,83.38
2023-03-03T19:10:04.486Z,69.60
2023-03-03T19:12:46.981Z,58.58
2023-03-03T19:15:35.274Z,48.35
2023-03-03T19:18:14.856Z,50.55
2023-03-03T19:20:45.122Z,30.10
2023-03-03T19:23:17.336Z,35.40
2023-03-03T19:25:45.242Z,32.72
2023-03-03T19:28:16.093Z,25.85
2023-03-03T19:30:59.574Z,22.35
2023-03-03T19:33:43.835Z,25.15
2023-03-03T19:36:26.153Z,26.63
2023-03-03T19:39:09.354Z,21.85
2023-03-03T19:41:59.879Z,27.65
2023-03-03T19:45:01.253Z,25.75
2023-03-03T19:47:37.313Z,18.10
2023-03-03T19:50:23.636Z,9.18
2023-03-03T19:53:00.680Z,8.85
2023-03-03T19:55:36.229Z,6.95
2023-03-03T19:58:35.089Z,5.75
2023-03-03T20:01:54.291Z,5.97
2023-03-03T20:04:38.634Z,5.40
2023-03-03T20:07:16.584Z,17.67
2023-03-03T20:09:53.985Z,19.30
2023-03-03T20:12:40.342Z,23.77
2023-03-03T20:15:14.402Z,18.48
2023-03-03T20:18:11.590Z,9.88
2023-03-03T20:20:51.639Z,19.77
2023-03-03T20:24:21.058Z,26.67
2023-03-03T20:26:57.512Z,15.18
2023-03-03T20:29:53.846Z,28.55
2023-03-03T20:32:35.919Z,27.27
2023-03-03T20:35:21.528Z,12.65
2023-03-03T20:38:15.133Z,10.25
2023-03-03T20:40:51.551Z,9.57
2023-03-03T20:43:34.450Z,9.85
2023-03-03T20:46:08.710Z,7.82
2023-03-03T20:48:59.818Z,4.93
2023-03-03T20:51:33.677Z,7.90
2023-03-03T20:54:39.471Z,4.38
2023-03-03T20:57:34.532Z,3.47
2023-03-03T21:00:08.449Z,3.75
2023-03-03T21:02:41.949Z,2.60
2023-03-03T21:05:23.103Z,7.03
2023-03-03T21:07:58.178Z,7.80
2023-03-03T21:10:31.078Z,7.35
2023-03-03T21:13:00.209Z,6.00
2023-03-03T21:15:30.430Z,7.13
2023-03-03T21:17:59.346Z,6.85
2023-03-03T21:20:32.312Z,3.72
2023-03-03T21:23:01.162Z,5.57
2023-03-03T21:25:42.027Z,3.00
2023-03-03T21:28:23.543Z,6.50
2023-03-03T21:31:09.853Z,3.20
2023-03-03T21:33:43.908Z,2.70
2023-03-03T21:36:13.796Z,4.30
2023-03-03T21:38:42.152Z,5.03
2023-03-03T21:41:10.185Z,3.03
2023-03-03T21:43:48.741Z,5.97
2023-03-03T21:46:24.203Z,3.22
2023-03-03T21:48:52.412Z,5.18
2023-03-03T21:51:21.837Z,3.70
2023-03-03T21:53:49.853Z,3.65
2023-03-03T21:56:17.740Z,4.15
2023-03-03T21:58:45.430Z,4.47
2023-03-03T22:01:13.903Z,7.05
2023-03-03T22:03:44.521Z,7.15
2023-03-03T22:06:12.623Z,6.13
2023-03-03T22:08:40.702Z,4.22
2023-03-03T22:11:08.436Z,4.13
2023-03-03T22:13:36.722Z,4.00
2023-03-03T22:16:04.831Z,3.95
2023-03-03T22:18:32.911Z,7.30
2023-03-03T22:21:00.670Z,4.40
2023-03-03T22:23:28.569Z,4.47
2023-03-03T22:25:56.368Z,4.63
2023-03-03T22:28:24.848Z,3.70
2023-03-03T22:30:52.726Z,3.17
2023-03-03T22:33:20.890Z,3.95
2023-03-03T22:35:49.033Z,4.75
2023-03-03T22:38:17.265Z,5.20
2023-03-03T22:40:45.225Z,3.88
2023-03-03T22:43:14.987Z,4.40
2023-03-03T22:45:43.130Z,4.68
2023-03-03T22:48:11.984Z,3.55
2023-03-03T22:50:41.063Z,2.95
2023-03-03T22:53:08.961Z,3.50
2023-03-03T22:55:37.773Z,3.50
2023-03-03T22:58:07.489Z,2.42
2023-03-03T23:00:40.606Z,4.72
2023-03-03T23:03:10.098Z,3.15
2023-03-03T23:05:41.212Z,3.45
2023-03-03T23:08:11.967Z,4.85
2023-03-03T23:10:40.480Z,7.18
2023-03-03T23:13:09.797Z,6.30
2023-03-03T23:15:38.035Z,5.28
2023-03-03T23:18:06.279Z,9.93
2023-03-03T23:20:34.675Z,9.73
2023-03-03T23:23:03.139Z,10.93
2023-03-03T23:25:31.301Z,8.07
2023-03-03T23:28:00.118Z,6.40
2023-03-03T23:30:28.283Z,3.53
2023-03-03T23:32:56.657Z,3.45
2023-03-03T23:35:25.057Z,6.35
2023-03-03T23:37:53.594Z,3.22
2023-03-03T23:40:21.902Z,4.38
2023-03-03T23:42:50.532Z,4.13
2023-03-03T23:45:18.703Z,2.33
2023-03-03T23:47:51.445Z,2.90
2023-03-03T23:50:20.145Z,7.22
2023-03-03T23:52:48.515Z,3.22
2023-03-03T23:55:16.904Z,4.40
2023-03-03T23:57:44.915Z,6.68
